sensor_id;sensor_type;location;lat;lon;timestamp;temperature;humidity
74940;HTU21D;63505;45.226;37.908;2022-11-23T00:01:47;5.94;86.41
74940;HTU21D;63505;45.226;37.908;2022-11-23T00:04:12;5.97;86.34
74940;HTU21D;63505;45.226;37.908;2022-11-23T00:06:39;5.98;86.27
74940;HTU21D;63505;45.226;37.908;2022-11-23T00:09:05;6.01;86.22
74940;HTU21D;63505;45.226;37.908;2022-11-23T00:11:34;6.02;86.12
74940;HTU21D;63505;45.226;37.908;2022-11-23T00:14:00;6.02;86.07
74940;HTU21D;63505;45.226;37.908;2022-11-23T00:16:28;6.04;86.06
74940;HTU21D;63505;45.226;37.908;2022-11-23T00:18:55;6.02;86.00
74940;HTU21D;63505;45.226;37.908;2022-11-23T00:21:23;6.05;86.00
74940;HTU21D;63505;45.226;37.908;2022-11-23T00:23:49;6.05;85.93
74940;HTU21D;63505;45.226;37.908;2022-11-23T00:26:16;6.05;85.92
74940;HTU21D;63505;45.226;37.908;2022-11-23T00:28:43;6.06;85.89
74940;HTU21D;63505;45.226;37.908;2022-11-23T00:31:12;6.07;85.86
74940;HTU21D;63505;45.226;37.908;2022-11-23T00:33:38;6.08;85.81
74940;HTU21D;63505;45.226;37.908;2022-11-23T00:36:11;6.08;85.80
74940;HTU21D;63505;45.226;37.908;2022-11-23T00:38:39;6.06;85.75
74940;HTU21D;63505;45.226;37.908;2022-11-23T00:41:14;6.05;85.77
74940;HTU21D;63505;45.226;37.908;2022-11-23T00:43:40;6.04;85.75
74940;HTU21D;63505;45.226;37.908;2022-11-23T00:46:08;6.04;85.75
74940;HTU21D;63505;45.226;37.908;2022-11-23T00:48:35;6.05;85.71
74940;HTU21D;63505;45.226;37.908;2022-11-23T00:51:03;6.06;85.71
74940;HTU21D;63505;45.226;37.908;2022-11-23T00:53:29;6.09;85.67
74940;HTU21D;63505;45.226;37.908;2022-11-23T00:55:56;6.08;85.64
74940;HTU21D;63505;45.226;37.908;2022-11-23T00:58:23;6.08;85.61
74940;HTU21D;63505;45.226;37.908;2022-11-23T01:00:49;6.08;85.58
74940;HTU21D;63505;45.226;37.908;2022-11-23T01:03:15;6.07;85.61
74940;HTU21D;63505;45.226;37.908;2022-11-23T01:05:41;6.01;85.58
74940;HTU21D;63505;45.226;37.908;2022-11-23T01:08:09;6.00;85.59
74940;HTU21D;63505;45.226;37.908;2022-11-23T01:10:35;5.97;85.62
74940;HTU21D;63505;45.226;37.908;2022-11-23T01:13:01;5.94;85.61
74940;HTU21D;63505;45.226;37.908;2022-11-23T01:15:27;5.93;85.64
74940;HTU21D;63505;45.226;37.908;2022-11-23T01:17:53;5.91;85.66
74940;HTU21D;63505;45.226;37.908;2022-11-23T01:20:18;5.89;85.65
74940;HTU21D;63505;45.226;37.908;2022-11-23T01:22:44;5.87;85.67
74940;HTU21D;63505;45.226;37.908;2022-11-23T01:25:10;5.85;85.69
74940;HTU21D;63505;45.226;37.908;2022-11-23T01:27:37;5.86;85.66
74940;HTU21D;63505;45.226;37.908;2022-11-23T01:30:03;5.86;85.64
74940;HTU21D;63505;45.226;37.908;2022-11-23T01:32:31;5.86;85.61
74940;HTU21D;63505;45.226;37.908;2022-11-23T01:34:57;5.90;85.59
74940;HTU21D;63505;45.226;37.908;2022-11-23T01:37:23;5.91;85.55
74940;HTU21D;63505;45.226;37.908;2022-11-23T01:39:51;5.92;85.55
74940;HTU21D;63505;45.226;37.908;2022-11-23T01:42:17;5.92;85.50
74940;HTU21D;63505;45.226;37.908;2022-11-23T01:44:43;5.93;85.49
74940;HTU21D;63505;45.226;37.908;2022-11-23T01:47:09;5.95;85.47
74940;HTU21D;63505;45.226;37.908;2022-11-23T01:49:41;5.94;85.43
74940;HTU21D;63505;45.226;37.908;2022-11-23T01:52:22;5.95;85.44
74940;HTU21D;63505;45.226;37.908;2022-11-23T01:54:56;5.96;85.43
74940;HTU21D;63505;45.226;37.908;2022-11-23T01:57:34;5.99;85.43
74940;HTU21D;63505;45.226;37.908;2022-11-23T02:00:01;6.04;85.35
74940;HTU21D;63505;45.226;37.908;2022-11-23T02:02:41;6.04;85.32
74940;HTU21D;63505;45.226;37.908;2022-11-23T02:05:10;6.04;85.24
74940;HTU21D;63505;45.226;37.908;2022-11-23T02:07:37;6.00;85.25
74940;HTU21D;63505;45.226;37.908;2022-11-23T02:10:03;5.98;85.30
74940;HTU21D;63505;45.226;37.908;2022-11-23T02:12:30;5.97;85.32
74940;HTU21D;63505;45.226;37.908;2022-11-23T02:14:55;5.95;85.37
74940;HTU21D;63505;45.226;37.908;2022-11-23T02:17:21;5.97;85.39
74940;HTU21D;63505;45.226;37.908;2022-11-23T02:20:07;5.97;85.38
74940;HTU21D;63505;45.226;37.908;2022-11-23T02:25:21;5.98;85.35
74940;HTU21D;63505;45.226;37.908;2022-11-23T02:27:52;6.01;85.32
74940;HTU21D;63505;45.226;37.908;2022-11-23T02:30:18;6.00;85.29
74940;HTU21D;63505;45.226;37.908;2022-11-23T02:32:44;6.02;85.28
74940;HTU21D;63505;45.226;37.908;2022-11-23T02:35:11;6.05;85.25
74940;HTU21D;63505;45.226;37.908;2022-11-23T02:37:38;6.01;85.25
74940;HTU21D;63505;45.226;37.908;2022-11-23T02:40:11;6.02;85.23
74940;HTU21D;63505;45.226;37.908;2022-11-23T02:42:43;6.01;85.22
74940;HTU21D;63505;45.226;37.908;2022-11-23T02:45:23;5.99;85.23
74940;HTU21D;63505;45.226;37.908;2022-11-23T02:47:49;5.98;85.21
74940;HTU21D;63505;45.226;37.908;2022-11-23T02:50:15;5.95;85.25
74940;HTU21D;63505;45.226;37.908;2022-11-23T02:52:42;5.93;85.27
74940;HTU21D;63505;45.226;37.908;2022-11-23T02:55:08;5.90;85.29
74940;HTU21D;63505;45.226;37.908;2022-11-23T02:57:35;5.86;85.29
74940;HTU21D;63505;45.226;37.908;2022-11-23T03:00:01;5.82;85.35
74940;HTU21D;63505;45.226;37.908;2022-11-23T03:02:28;5.82;85.39
74940;HTU21D;63505;45.226;37.908;2022-11-23T03:04:54;5.80;85.35
74940;HTU21D;63505;45.226;37.908;2022-11-23T03:07:20;5.77;85.39
74940;HTU21D;63505;45.226;37.908;2022-11-23T03:09:47;5.74;85.37
74940;HTU21D;63505;45.226;37.908;2022-11-23T03:12:13;5.66;85.35
74940;HTU21D;63505;45.226;37.908;2022-11-23T03:14:41;5.57;85.42
74940;HTU21D;63505;45.226;37.908;2022-11-23T03:17:07;5.52;85.55
74940;HTU21D;63505;45.226;37.908;2022-11-23T03:19:39;5.50;85.63
74940;HTU21D;63505;45.226;37.908;2022-11-23T03:22:06;5.50;85.70
74940;HTU21D;63505;45.226;37.908;2022-11-23T03:24:32;5.52;85.65
74940;HTU21D;63505;45.226;37.908;2022-11-23T03:27:00;5.48;85.63
74940;HTU21D;63505;45.226;37.908;2022-11-23T03:29:27;5.43;85.64
74940;HTU21D;63505;45.226;37.908;2022-11-23T03:31:55;5.39;85.69
74940;HTU21D;63505;45.226;37.908;2022-11-23T03:34:21;5.37;85.76
74940;HTU21D;63505;45.226;37.908;2022-11-23T03:36:49;5.37;85.76
74940;HTU21D;63505;45.226;37.908;2022-11-23T03:39:15;5.36;85.73
74940;HTU21D;63505;45.226;37.908;2022-11-23T03:42:16;5.33;85.67
74940;HTU21D;63505;45.226;37.908;2022-11-23T03:44:44;5.33;85.77
74940;HTU21D;63505;45.226;37.908;2022-11-23T03:47:09;5.38;85.77
74940;HTU21D;63505;45.226;37.908;2022-11-23T03:49:36;5.54;85.79
74940;HTU21D;63505;45.226;37.908;2022-11-23T03:52:03;5.59;85.61
74940;HTU21D;63505;45.226;37.908;2022-11-23T03:54:29;5.61;85.51
74940;HTU21D;63505;45.226;37.908;2022-11-23T03:56:54;5.60;85.48
74940;HTU21D;63505;45.226;37.908;2022-11-23T03:59:20;5.57;85.47
74940;HTU21D;63505;45.226;37.908;2022-11-23T04:01:46;5.53;85.53
74940;HTU21D;63505;45.226;37.908;2022-11-23T04:04:19;5.54;85.57
74940;HTU21D;63505;45.226;37.908;2022-11-23T04:07:06;5.56;85.57
74940;HTU21D;63505;45.226;37.908;2022-11-23T04:09:48;5.60;85.55
74940;HTU21D;63505;45.226;37.908;2022-11-23T04:12:36;5.62;85.50
74940;HTU21D;63505;45.226;37.908;2022-11-23T04:15:03;5.66;85.48
74940;HTU21D;63505;45.226;37.908;2022-11-23T04:17:29;5.70;85.45
74940;HTU21D;63505;45.226;37.908;2022-11-23T04:19:57;5.75;85.35
74940;HTU21D;63505;45.226;37.908;2022-11-23T04:22:23;5.76;85.34
74940;HTU21D;63505;45.226;37.908;2022-11-23T04:24:49;5.76;85.32
74940;HTU21D;63505;45.226;37.908;2022-11-23T04:27:15;5.75;85.32
74940;HTU21D;63505;45.226;37.908;2022-11-23T04:29:41;5.75;85.35
74940;HTU21D;63505;45.226;37.908;2022-11-23T04:32:07;5.72;85.32
74940;HTU21D;63505;45.226;37.908;2022-11-23T04:34:35;5.70;85.33
74940;HTU21D;63505;45.226;37.908;2022-11-23T04:37:03;5.69;85.35
74940;HTU21D;63505;45.226;37.908;2022-11-23T04:39:35;5.69;85.38
74940;HTU21D;63505;45.226;37.908;2022-11-23T04:42:21;5.68;85.37
74940;HTU21D;63505;45.226;37.908;2022-11-23T04:44:52;5.65;85.33
74940;HTU21D;63505;45.226;37.908;2022-11-23T04:47:19;5.60;85.38
74940;HTU21D;63505;45.226;37.908;2022-11-23T04:49:46;5.57;85.42
74940;HTU21D;63505;45.226;37.908;2022-11-23T04:52:13;5.54;85.44
74940;HTU21D;63505;45.226;37.908;2022-11-23T04:54:44;5.54;85.47
74940;HTU21D;63505;45.226;37.908;2022-11-23T04:57:10;5.56;85.48
74940;HTU21D;63505;45.226;37.908;2022-11-23T04:59:37;5.61;85.47
74940;HTU21D;63505;45.226;37.908;2022-11-23T05:02:04;5.64;85.38
74940;HTU21D;63505;45.226;37.908;2022-11-23T05:04:48;5.66;85.39
74940;HTU21D;63505;45.226;37.908;2022-11-23T05:07:16;5.71;85.41
74940;HTU21D;63505;45.226;37.908;2022-11-23T05:09:46;5.78;85.38
74940;HTU21D;63505;45.226;37.908;2022-11-23T05:12:17;5.83;85.32
74940;HTU21D;63505;45.226;37.908;2022-11-23T05:14:43;5.87;85.29
74940;HTU21D;63505;45.226;37.908;2022-11-23T05:17:11;5.91;85.25
74940;HTU21D;63505;45.226;37.908;2022-11-23T05:19:39;5.95;85.31
74940;HTU21D;63505;45.226;37.908;2022-11-23T05:22:05;6.00;85.32
74940;HTU21D;63505;45.226;37.908;2022-11-23T05:24:33;6.05;85.30
74940;HTU21D;63505;45.226;37.908;2022-11-23T05:27:07;6.11;85.31
74940;HTU21D;63505;45.226;37.908;2022-11-23T05:29:33;6.19;85.29
74940;HTU21D;63505;45.226;37.908;2022-11-23T05:31:59;6.26;85.26
74940;HTU21D;63505;45.226;37.908;2022-11-23T05:34:25;6.36;85.22
74940;HTU21D;63505;45.226;37.908;2022-11-23T05:36:51;6.45;85.16
74940;HTU21D;63505;45.226;37.908;2022-11-23T05:39:17;6.55;85.10
74940;HTU21D;63505;45.226;37.908;2022-11-23T05:41:44;6.61;85.03
74940;HTU21D;63505;45.226;37.908;2022-11-23T05:44:33;6.70;85.00
74940;HTU21D;63505;45.226;37.908;2022-11-23T05:46:59;6.78;85.00
74940;HTU21D;63505;45.226;37.908;2022-11-23T05:49:29;6.86;85.02
74940;HTU21D;63505;45.226;37.908;2022-11-23T05:51:57;6.98;84.97
74940;HTU21D;63505;45.226;37.908;2022-11-23T05:54:26;7.10;84.95
74940;HTU21D;63505;45.226;37.908;2022-11-23T05:57:06;7.23;84.90
74940;HTU21D;63505;45.226;37.908;2022-11-23T05:59:37;7.35;84.84
74940;HTU21D;63505;45.226;37.908;2022-11-23T06:02:04;7.49;84.79
74940;HTU21D;63505;45.226;37.908;2022-11-23T06:04:33;7.62;84.71
74940;HTU21D;63505;45.226;37.908;2022-11-23T06:06:59;7.74;84.64
74940;HTU21D;63505;45.226;37.908;2022-11-23T06:09:29;7.87;84.57
74940;HTU21D;63505;45.226;37.908;2022-11-23T06:12:03;8.01;84.49
74940;HTU21D;63505;45.226;37.908;2022-11-23T06:14:29;8.11;84.44
74940;HTU21D;63505;45.226;37.908;2022-11-23T06:16:56;8.22;84.36
74940;HTU21D;63505;45.226;37.908;2022-11-23T06:19:35;8.35;84.33
74940;HTU21D;63505;45.226;37.908;2022-11-23T06:22:02;8.48;84.26
74940;HTU21D;63505;45.226;37.908;2022-11-23T06:24:32;8.63;84.14
74940;HTU21D;63505;45.226;37.908;2022-11-23T06:27:17;8.76;84.00
74940;HTU21D;63505;45.226;37.908;2022-11-23T06:29:43;8.91;83.98
74940;HTU21D;63505;45.226;37.908;2022-11-23T06:32:09;9.08;83.83
74940;HTU21D;63505;45.226;37.908;2022-11-23T06:34:35;9.26;83.71
74940;HTU21D;63505;45.226;37.908;2022-11-23T06:37:01;9.50;83.61
74940;HTU21D;63505;45.226;37.908;2022-11-23T06:39:27;9.86;83.45
74940;HTU21D;63505;45.226;37.908;2022-11-23T06:41:53;10.35;82.94
74940;HTU21D;63505;45.226;37.908;2022-11-23T06:44:19;10.77;82.29
74940;HTU21D;63505;45.226;37.908;2022-11-23T06:46:45;11.19;81.89
74940;HTU21D;63505;45.226;37.908;2022-11-23T06:49:11;11.63;81.20
74940;HTU21D;63505;45.226;37.908;2022-11-23T06:51:40;11.89;80.22
74940;HTU21D;63505;45.226;37.908;2022-11-23T06:54:26;12.17;79.51
74940;HTU21D;63505;45.226;37.908;2022-11-23T06:56:52;12.46;79.02
74940;HTU21D;63505;45.226;37.908;2022-11-23T06:59:18;12.64;78.48
74940;HTU21D;63505;45.226;37.908;2022-11-23T07:01:44;12.67;78.42
74940;HTU21D;63505;45.226;37.908;2022-11-23T07:04:12;12.60;78.28
74940;HTU21D;63505;45.226;37.908;2022-11-23T07:06:45;12.44;78.15
74940;HTU21D;63505;45.226;37.908;2022-11-23T07:09:24;12.33;78.10
74940;HTU21D;63505;45.226;37.908;2022-11-23T07:12:07;12.57;78.18
74940;HTU21D;63505;45.226;37.908;2022-11-23T07:14:33;12.95;77.81
74940;HTU21D;63505;45.226;37.908;2022-11-23T07:16:59;13.32;77.02
74940;HTU21D;63505;45.226;37.908;2022-11-23T07:19:26;13.67;76.44
74940;HTU21D;63505;45.226;37.908;2022-11-23T07:21:56;14.04;75.94
74940;HTU21D;63505;45.226;37.908;2022-11-23T07:24:22;14.26;75.50
74940;HTU21D;63505;45.226;37.908;2022-11-23T07:26:47;14.54;75.16
74940;HTU21D;63505;45.226;37.908;2022-11-23T07:29:14;14.77;74.68
74940;HTU21D;63505;45.226;37.908;2022-11-23T07:31:40;15.10;74.61
74940;HTU21D;63505;45.226;37.908;2022-11-23T07:34:07;15.30;73.12
74940;HTU21D;63505;45.226;37.908;2022-11-23T07:36:36;15.54;72.66
74940;HTU21D;63505;45.226;37.908;2022-11-23T07:39:02;15.54;69.52
74940;HTU21D;63505;45.226;37.908;2022-11-23T07:41:28;15.28;67.47
74940;HTU21D;63505;45.226;37.908;2022-11-23T07:44:04;15.13;67.04
74940;HTU21D;63505;45.226;37.908;2022-11-23T07:46:30;15.14;67.86
74940;HTU21D;63505;45.226;37.908;2022-11-23T07:48:56;15.27;67.41
74940;HTU21D;63505;45.226;37.908;2022-11-23T07:51:27;15.28;67.36
74940;HTU21D;63505;45.226;37.908;2022-11-23T07:53:53;15.21;66.56
74940;HTU21D;63505;45.226;37.908;2022-11-23T07:56:20;15.17;65.61
74940;HTU21D;63505;45.226;37.908;2022-11-23T07:58:45;15.09;65.11
74940;HTU21D;63505;45.226;37.908;2022-11-23T08:01:15;14.96;64.74
74940;HTU21D;63505;45.226;37.908;2022-11-23T08:03:46;14.68;65.59
74940;HTU21D;63505;45.226;37.908;2022-11-23T08:06:13;14.53;65.93
74940;HTU21D;63505;45.226;37.908;2022-11-23T08:08:40;14.56;66.41
74940;HTU21D;63505;45.226;37.908;2022-11-23T08:11:08;14.63;66.43
74940;HTU21D;63505;45.226;37.908;2022-11-23T08:13:34;14.60;66.90
74940;HTU21D;63505;45.226;37.908;2022-11-23T08:16:02;14.58;66.58
74940;HTU21D;63505;45.226;37.908;2022-11-23T08:18:28;14.30;66.17
74940;HTU21D;63505;45.226;37.908;2022-11-23T08:20:57;14.12;66.69
74940;HTU21D;63505;45.226;37.908;2022-11-23T08:23:23;13.94;66.81
74940;HTU21D;63505;45.226;37.908;2022-11-23T08:25:50;13.83;66.87
74940;HTU21D;63505;45.226;37.908;2022-11-23T08:28:16;13.76;67.12
74940;HTU21D;63505;45.226;37.908;2022-11-23T08:30:42;13.64;67.10
74940;HTU21D;63505;45.226;37.908;2022-11-23T08:33:09;13.59;67.51
74940;HTU21D;63505;45.226;37.908;2022-11-23T08:35:36;13.54;67.88
74940;HTU21D;63505;45.226;37.908;2022-11-23T08:38:07;13.54;68.06
74940;HTU21D;63505;45.226;37.908;2022-11-23T08:40:34;13.40;68.24
74940;HTU21D;63505;45.226;37.908;2022-11-23T08:43:00;13.34;68.68
74940;HTU21D;63505;45.226;37.908;2022-11-23T08:45:26;13.36;69.00
74940;HTU21D;63505;45.226;37.908;2022-11-23T08:47:52;13.44;69.11
74940;HTU21D;63505;45.226;37.908;2022-11-23T08:50:20;13.44;68.94
74940;HTU21D;63505;45.226;37.908;2022-11-23T08:52:46;13.38;68.97
74940;HTU21D;63505;45.226;37.908;2022-11-23T08:55:13;13.40;69.14
74940;HTU21D;63505;45.226;37.908;2022-11-23T08:57:39;13.43;69.26
74940;HTU21D;63505;45.226;37.908;2022-11-23T09:00:05;13.34;68.78
74940;HTU21D;63505;45.226;37.908;2022-11-23T09:02:31;13.21;68.89
74940;HTU21D;63505;45.226;37.908;2022-11-23T09:04:57;13.14;69.21
74940;HTU21D;63505;45.226;37.908;2022-11-23T09:07:23;13.15;69.50
74940;HTU21D;63505;45.226;37.908;2022-11-23T09:09:49;13.12;69.68
74940;HTU21D;63505;45.226;37.908;2022-11-23T09:12:15;13.12;69.92
74940;HTU21D;63505;45.226;37.908;2022-11-23T09:14:41;13.12;70.00
74940;HTU21D;63505;45.226;37.908;2022-11-23T09:17:07;13.11;69.97
74940;HTU21D;63505;45.226;37.908;2022-11-23T09:19:33;13.03;69.96
74940;HTU21D;63505;45.226;37.908;2022-11-23T09:21:59;12.91;70.04
74940;HTU21D;63505;45.226;37.908;2022-11-23T09:24:24;12.87;70.43
74940;HTU21D;63505;45.226;37.908;2022-11-23T09:26:52;12.86;70.75
74940;HTU21D;63505;45.226;37.908;2022-11-23T09:29:18;12.88;70.99
74940;HTU21D;63505;45.226;37.908;2022-11-23T09:31:44;12.90;70.79
74940;HTU21D;63505;45.226;37.908;2022-11-23T09:34:13;12.92;70.97
74940;HTU21D;63505;45.226;37.908;2022-11-23T09:36:39;12.97;71.03
74940;HTU21D;63505;45.226;37.908;2022-11-23T09:39:05;12.97;70.86
74940;HTU21D;63505;45.226;37.908;2022-11-23T09:52:35;13.07;70.64
74940;HTU21D;63505;45.226;37.908;2022-11-23T09:55:09;13.07;70.68
74940;HTU21D;63505;45.226;37.908;2022-11-23T09:57:38;13.02;70.66
74940;HTU21D;63505;45.226;37.908;2022-11-23T10:00:16;12.97;70.91
74940;HTU21D;63505;45.226;37.908;2022-11-23T10:02:44;12.99;71.10
74940;HTU21D;63505;45.226;37.908;2022-11-23T10:05:16;13.02;71.00
74940;HTU21D;63505;45.226;37.908;2022-11-23T10:10:37;13.17;70.95
74940;HTU21D;63505;45.226;37.908;2022-11-23T10:24:27;13.04;71.17
74940;HTU21D;63505;45.226;37.908;2022-11-23T10:26:56;13.07;71.31
74940;HTU21D;63505;45.226;37.908;2022-11-23T10:29:32;13.05;71.38
74940;HTU21D;63505;45.226;37.908;2022-11-23T10:31:59;13.06;71.38
74940;HTU21D;63505;45.226;37.908;2022-11-23T10:37:12;13.09;71.52
74940;HTU21D;63505;45.226;37.908;2022-11-23T10:39:39;13.05;71.46
74940;HTU21D;63505;45.226;37.908;2022-11-23T10:42:35;13.04;71.63
74940;HTU21D;63505;45.226;37.908;2022-11-23T10:45:03;13.02;71.83
74940;HTU21D;63505;45.226;37.908;2022-11-23T10:47:56;12.95;72.08
74940;HTU21D;63505;45.226;37.908;2022-11-23T10:50:31;12.93;72.39
74940;HTU21D;63505;45.226;37.908;2022-11-23T10:55:47;12.91;72.77
74940;HTU21D;63505;45.226;37.908;2022-11-23T10:58:43;12.92;72.96
74940;HTU21D;63505;45.226;37.908;2022-11-23T11:01:19;12.97;73.03
74940;HTU21D;63505;45.226;37.908;2022-11-23T11:03:48;12.96;73.18
74940;HTU21D;63505;45.226;37.908;2022-11-23T11:06:25;12.95;73.34
74940;HTU21D;63505;45.226;37.908;2022-11-23T11:08:56;12.95;73.55
74940;HTU21D;63505;45.226;37.908;2022-11-23T11:11:28;12.90;73.77
74940;HTU21D;63505;45.226;37.908;2022-11-23T11:14:03;12.85;73.90
74940;HTU21D;63505;45.226;37.908;2022-11-23T11:16:30;12.79;74.06
74940;HTU21D;63505;45.226;37.908;2022-11-23T11:18:57;12.76;74.26
74940;HTU21D;63505;45.226;37.908;2022-11-23T11:21:31;12.76;74.47
74940;HTU21D;63505;45.226;37.908;2022-11-23T11:23:59;12.76;74.57
74940;HTU21D;63505;45.226;37.908;2022-11-23T11:26:27;12.76;74.76
74940;HTU21D;63505;45.226;37.908;2022-11-23T11:28:57;12.76;74.86
74940;HTU21D;63505;45.226;37.908;2022-11-23T11:37:33;12.71;75.01
74940;HTU21D;63505;45.226;37.908;2022-11-23T11:40:18;12.69;75.12
74940;HTU21D;63505;45.226;37.908;2022-11-23T11:43:03;12.63;75.24
74940;HTU21D;63505;45.226;37.908;2022-11-23T11:45:32;12.61;75.38
74940;HTU21D;63505;45.226;37.908;2022-11-23T11:50:51;12.58;75.66
74940;HTU21D;63505;45.226;37.908;2022-11-23T11:53:23;12.58;75.68
74940;HTU21D;63505;45.226;37.908;2022-11-23T11:58:35;12.53;75.79
74940;HTU21D;63505;45.226;37.908;2022-11-23T12:04:08;12.50;75.98
74940;HTU21D;63505;45.226;37.908;2022-11-23T12:06:45;12.49;76.10
74940;HTU21D;63505;45.226;37.908;2022-11-23T12:09:19;12.44;76.27
74940;HTU21D;63505;45.226;37.908;2022-11-23T12:11:47;12.44;76.34
74940;HTU21D;63505;45.226;37.908;2022-11-23T12:14:14;12.44;76.37
74940;HTU21D;63505;45.226;37.908;2022-11-23T12:19:38;12.40;76.50
74940;HTU21D;63505;45.226;37.908;2022-11-23T12:22:33;12.34;76.62
74940;HTU21D;63505;45.226;37.908;2022-11-23T12:30:30;12.23;76.99
74940;HTU21D;63505;45.226;37.908;2022-11-23T12:39:19;12.17;77.23
74940;HTU21D;63505;45.226;37.908;2022-11-23T12:41:52;12.16;77.32
74940;HTU21D;63505;45.226;37.908;2022-11-23T12:47:33;12.13;77.44
74940;HTU21D;63505;45.226;37.908;2022-11-23T12:50:25;12.10;77.60
74940;HTU21D;63505;45.226;37.908;2022-11-23T12:58:43;12.04;77.83
74940;HTU21D;63505;45.226;37.908;2022-11-23T13:01:34;12.02;77.95
74940;HTU21D;63505;45.226;37.908;2022-11-23T13:18:16;11.88;78.69
74940;HTU21D;63505;45.226;37.908;2022-11-23T13:23:09;11.86;78.78
74940;HTU21D;63505;45.226;37.908;2022-11-23T13:25:35;11.84;78.84
74940;HTU21D;63505;45.226;37.908;2022-11-23T13:28:03;11.79;78.94
74940;HTU21D;63505;45.226;37.908;2022-11-23T13:30:37;11.78;79.04
74940;HTU21D;63505;45.226;37.908;2022-11-23T13:40:42;11.71;79.39
74940;HTU21D;63505;45.226;37.908;2022-11-23T13:48:42;11.63;79.74
74940;HTU21D;63505;45.226;37.908;2022-11-23T13:51:09;11.63;79.78
74940;HTU21D;63505;45.226;37.908;2022-11-23T13:53:39;11.59;79.79
74940;HTU21D;63505;45.226;37.908;2022-11-23T13:56:28;11.57;79.83
74940;HTU21D;63505;45.226;37.908;2022-11-23T14:04:30;11.46;79.96
74940;HTU21D;63505;45.226;37.908;2022-11-23T14:06:57;11.42;80.01
74940;HTU21D;63505;45.226;37.908;2022-11-23T14:12:41;11.33;80.24
74940;HTU21D;63505;45.226;37.908;2022-11-23T14:15:24;11.30;80.30
74940;HTU21D;63505;45.226;37.908;2022-11-23T14:26:58;11.15;80.83
74940;HTU21D;63505;45.226;37.908;2022-11-23T14:41:00;11.05;81.04
74940;HTU21D;63505;45.226;37.908;2022-11-23T14:43:29;11.03;81.07
74940;HTU21D;63505;45.226;37.908;2022-11-23T14:46:00;11.01;81.07
74940;HTU21D;63505;45.226;37.908;2022-11-23T14:48:32;11.00;81.07
74940;HTU21D;63505;45.226;37.908;2022-11-23T14:53:28;10.94;81.12
74940;HTU21D;63505;45.226;37.908;2022-11-23T14:55:56;10.92;81.13
74940;HTU21D;63505;45.226;37.908;2022-11-23T14:58:24;10.87;81.15
74940;HTU21D;63505;45.226;37.908;2022-11-23T15:00:51;10.87;81.15
74940;HTU21D;63505;45.226;37.908;2022-11-23T15:03:19;10.82;81.14
74940;HTU21D;63505;45.226;37.908;2022-11-23T15:05:49;10.79;81.18
74940;HTU21D;63505;45.226;37.908;2022-11-23T15:08:20;10.74;81.22
74940;HTU21D;63505;45.226;37.908;2022-11-23T15:11:02;10.68;81.28
74940;HTU21D;63505;45.226;37.908;2022-11-23T15:13:40;10.62;81.39
74940;HTU21D;63505;45.226;37.908;2022-11-23T15:16:11;10.57;81.52
74940;HTU21D;63505;45.226;37.908;2022-11-23T15:18:37;10.54;81.65
74940;HTU21D;63505;45.226;37.908;2022-11-23T15:21:19;10.53;81.78
74940;HTU21D;63505;45.226;37.908;2022-11-23T15:23:56;10.51;81.88
74940;HTU21D;63505;45.226;37.908;2022-11-23T15:26:25;10.48;81.95
74940;HTU21D;63505;45.226;37.908;2022-11-23T15:28:52;10.44;82.06
74940;HTU21D;63505;45.226;37.908;2022-11-23T15:31:26;10.41;82.18
74940;HTU21D;63505;45.226;37.908;2022-11-23T15:33:56;10.37;82.29
74940;HTU21D;63505;45.226;37.908;2022-11-23T15:36:33;10.33;82.45
74940;HTU21D;63505;45.226;37.908;2022-11-23T15:39:01;10.28;82.59
74940;HTU21D;63505;45.226;37.908;2022-11-23T15:41:29;10.25;82.79
74940;HTU21D;63505;45.226;37.908;2022-11-23T15:43:58;10.22;82.94
74940;HTU21D;63505;45.226;37.908;2022-11-23T15:46:28;10.20;83.04
74940;HTU21D;63505;45.226;37.908;2022-11-23T15:48:59;10.16;83.07
74940;HTU21D;63505;45.226;37.908;2022-11-23T15:51:29;10.12;83.07
74940;HTU21D;63505;45.226;37.908;2022-11-23T15:53:59;10.07;83.19
74940;HTU21D;63505;45.226;37.908;2022-11-23T15:56:36;10.03;83.37
74940;HTU21D;63505;45.226;37.908;2022-11-23T16:02:16;9.96;83.71
74940;HTU21D;63505;45.226;37.908;2022-11-23T16:04:45;9.94;83.80
74940;HTU21D;63505;45.226;37.908;2022-11-23T16:07:16;9.92;83.90
74940;HTU21D;63505;45.226;37.908;2022-11-23T16:09:45;9.91;83.95
74940;HTU21D;63505;45.226;37.908;2022-11-23T16:12:23;9.90;83.95
74940;HTU21D;63505;45.226;37.908;2022-11-23T16:14:52;9.88;83.94
74940;HTU21D;63505;45.226;37.908;2022-11-23T16:17:23;9.85;84.03
74940;HTU21D;63505;45.226;37.908;2022-11-23T16:20:12;9.84;84.14
74940;HTU21D;63505;45.226;37.908;2022-11-23T16:22:41;9.84;84.25
74940;HTU21D;63505;45.226;37.908;2022-11-23T16:25:24;9.81;84.29
74940;HTU21D;63505;45.226;37.908;2022-11-23T16:27:59;9.81;84.32
74940;HTU21D;63505;45.226;37.908;2022-11-23T16:30:43;9.79;84.30
74940;HTU21D;63505;45.226;37.908;2022-11-23T16:33:15;9.78;84.24
74940;HTU21D;63505;45.226;37.908;2022-11-23T16:35:42;9.76;84.22
74940;HTU21D;63505;45.226;37.908;2022-11-23T16:38:08;9.72;84.19
74940;HTU21D;63505;45.226;37.908;2022-11-23T16:40:34;9.70;84.18
74940;HTU21D;63505;45.226;37.908;2022-11-23T16:43:00;9.67;84.18
74940;HTU21D;63505;45.226;37.908;2022-11-23T16:45:28;9.65;84.15
74940;HTU21D;63505;45.226;37.908;2022-11-23T16:47:58;9.62;84.16
74940;HTU21D;63505;45.226;37.908;2022-11-23T16:50:30;9.60;84.14
74940;HTU21D;63505;45.226;37.908;2022-11-23T16:53:00;9.56;84.13
74940;HTU21D;63505;45.226;37.908;2022-11-23T16:55:26;9.52;84.13
74940;HTU21D;63505;45.226;37.908;2022-11-23T16:57:52;9.50;84.13
74940;HTU21D;63505;45.226;37.908;2022-11-23T17:00:20;9.48;84.12
74940;HTU21D;63505;45.226;37.908;2022-11-23T17:02:47;9.42;84.12
74940;HTU21D;63505;45.226;37.908;2022-11-23T17:05:20;9.41;84.11
74940;HTU21D;63505;45.226;37.908;2022-11-23T17:07:50;9.36;84.10
74940;HTU21D;63505;45.226;37.908;2022-11-23T17:10:16;9.35;84.10
74940;HTU21D;63505;45.226;37.908;2022-11-23T17:12:50;9.32;84.08
74940;HTU21D;63505;45.226;37.908;2022-11-23T17:15:19;9.31;84.08
74940;HTU21D;63505;45.226;37.908;2022-11-23T17:17:45;9.26;84.07
74940;HTU21D;63505;45.226;37.908;2022-11-23T17:20:12;9.24;84.05
74940;HTU21D;63505;45.226;37.908;2022-11-23T17:22:39;9.20;84.07
74940;HTU21D;63505;45.226;37.908;2022-11-23T17:25:07;9.20;84.07
74940;HTU21D;63505;45.226;37.908;2022-11-23T17:27:35;9.18;84.03
74940;HTU21D;63505;45.226;37.908;2022-11-23T17:30:09;9.17;84.00
74940;HTU21D;63505;45.226;37.908;2022-11-23T17:32:35;9.15;84.00
74940;HTU21D;63505;45.226;37.908;2022-11-23T17:35:02;9.12;83.99
74940;HTU21D;63505;45.226;37.908;2022-11-23T17:37:28;9.08;83.97
74940;HTU21D;63505;45.226;37.908;2022-11-23T17:39:54;9.04;83.97
74940;HTU21D;63505;45.226;37.908;2022-11-23T17:42:20;8.96;83.99